createdAt,value
2018-09-22T00:03:21.786Z,101397.06
2018-09-22T00:08:19.502Z,101419.91
2018-09-22T00:13:17.757Z,101427.14
2018-09-22T00:18:18.455Z,101469.87
2018-09-22T00:23:23.492Z,101481.55
2018-09-22T00:28:23.413Z,101502.81
2018-09-22T00:33:27.101Z,101482.92
2018-09-22T00:38:30.109Z,101485.19
2018-09-22T00:43:33.738Z,101492.89
2018-09-22T00:48:45.213Z,101494.84
2018-09-22T00:53:56.077Z,101489.66
2018-09-22T00:59:06.846Z,101491.00
2018-09-22T01:04:15.409Z,101496.66
2018-09-22T01:09:17.841Z,101495.58
2018-09-22T01:14:28.974Z,101507.17
2018-09-22T01:19:39.486Z,101517.44
2018-09-22T01:24:48.179Z,101524.25
2018-09-22T01:29:56.705Z,101532.97
2018-09-22T01:35:07.030Z,101537.98
2018-09-22T01:40:16.218Z,101540.25
2018-09-22T01:45:18.452Z,101551.78
2018-09-22T01:50:24.718Z,101541.20
2018-09-22T01:55:29.754Z,101537.74
2018-09-22T02:00:35.881Z,101548.08
2018-09-22T02:05:41.850Z,101553.91
2018-09-22T02:10:48.073Z,101558.91
2018-09-22T02:15:54.212Z,101564.06
2018-09-22T02:20:59.358Z,101561.19
2018-09-22T02:26:05.900Z,101572.45
2018-09-22T02:31:22.181Z,101574.67
2018-09-22T02:36:27.472Z,101579.77
2018-09-22T02:41:32.394Z,101582.67
2018-09-22T02:46:41.739Z,101574.11
2018-09-22T02:51:47.380Z,101581.84
2018-09-22T02:56:56.725Z,101585.66
2018-09-22T03:02:10.528Z,101584.35
2018-09-22T03:07:15.695Z,101596.01
2018-09-22T03:12:21.022Z,101582.22
2018-09-22T03:17:27.389Z,101588.22
2018-09-22T03:22:33.705Z,101598.22
2018-09-22T03:27:47.703Z,101606.55
2018-09-22T03:32:57.090Z,101605.26
2018-09-22T03:37:59.765Z,101617.23
2018-09-22T03:43:11.234Z,101626.89
2018-09-22T03:48:13.982Z,101618.07
2018-09-22T03:53:17.230Z,101615.86
2018-09-22T03:58:27.617Z,101618.41
2018-09-22T04:03:30.812Z,101622.75
2018-09-22T04:08:40.152Z,101631.56
2018-09-22T04:13:42.915Z,101638.69
2018-09-22T04:18:54.173Z,101634.81
2018-09-22T04:23:56.090Z,101641.13
2018-09-22T04:29:04.305Z,101658.83
2018-09-22T04:34:07.022Z,101646.30
2018-09-22T04:39:07.524Z,101652.73
2018-09-22T04:44:11.673Z,101657.45
2018-09-22T04:49:11.947Z,101659.27
2018-09-22T04:54:15.735Z,101669.20
2018-09-22T04:59:16.489Z,101674.73
2018-09-22T05:04:20.987Z,101671.36
2018-09-22T05:09:24.287Z,101679.41
2018-09-22T05:14:27.527Z,101681.81
2018-09-22T05:19:39.717Z,101686.77
2018-09-22T05:24:42.389Z,101697.05
2018-09-22T05:29:53.671Z,101707.03
2018-09-22T05:34:59.270Z,101713.06
2018-09-22T05:40:02.296Z,101723.77
2018-09-22T05:45:05.606Z,101700.51
2018-09-22T05:50:09.231Z,101708.81
2018-09-22T05:55:23.907Z,101720.25
2018-09-22T06:00:26.176Z,101725.41
2018-09-22T06:05:37.855Z,101720.22
2018-09-22T06:10:40.699Z,101718.59
2018-09-22T06:15:52.067Z,101720.12
2018-09-22T06:20:54.704Z,101715.41
2018-09-22T06:25:58.365Z,101702.33
2018-09-22T06:30:58.510Z,101714.09
2018-09-22T06:36:11.163Z,101714.47
2018-09-22T06:41:12.603Z,101705.19
2018-09-22T06:46:24.295Z,101732.42
2018-09-22T06:51:27.833Z,101730.23
2018-09-22T06:56:28.011Z,101726.18
2018-09-22T07:01:38.053Z,101727.34
2018-09-22T07:06:38.493Z,101732.49
2018-09-22T07:11:44.537Z,101720.89
2018-09-22T07:16:47.333Z,101730.41
2018-09-22T07:21:42.766Z,101743.45
2018-09-22T07:26:47.648Z,101733.08
2018-09-22T07:31:51.932Z,101758.98
2018-09-22T07:36:58.520Z,101763.33
2018-09-22T07:42:00.010Z,101747.34
2018-09-22T07:46:57.796Z,101744.74
2018-09-22T07:52:00.526Z,101743.84
2018-09-22T07:56:58.853Z,101738.45
2018-09-22T08:01:54.909Z,101749.06
2018-09-22T08:06:48.554Z,101764.14
2018-09-22T08:11:42.763Z,101770.66
2018-09-22T08:16:38.857Z,101770.76
2018-09-22T08:21:34.780Z,101769.45
2018-09-22T08:26:30.541Z,101761.88
2018-09-22T08:31:26.508Z,101763.89
2018-09-22T08:36:23.690Z,101761.35
2018-09-22T08:41:25.631Z,101757.64
2018-09-22T08:46:18.661Z,101759.53
2018-09-22T08:51:15.701Z,101760.36
2018-09-22T08:56:09.814Z,101732.39
2018-09-22T09:01:06.505Z,101732.63
2018-09-22T09:06:05.561Z,101737.66
2018-09-22T09:10:59.417Z,101760.06
2018-09-22T09:15:53.826Z,101758.83
2018-09-22T09:20:48.214Z,101750.69
2018-09-22T09:25:42.517Z,101743.30
2018-09-22T09:30:36.366Z,101713.38
2018-09-22T09:35:27.872Z,101722.04
2018-09-22T09:40:20.553Z,101707.91
2018-09-22T09:45:13.822Z,101700.78
2018-09-22T09:50:04.990Z,101712.42
2018-09-22T09:54:57.080Z,101699.77
2018-09-22T09:59:51.491Z,101697.84
2018-09-22T10:04:46.969Z,101694.98
2018-09-22T10:09:44.246Z,101693.55
2018-09-22T10:14:37.127Z,101674.27
2018-09-22T10:19:30.893Z,101677.20
2018-09-22T10:24:24.895Z,101663.25
2018-09-22T10:29:18.312Z,101670.05
2018-09-22T10:34:11.486Z,101667.89
2018-09-22T10:39:03.941Z,101670.17
2018-09-22T10:43:57.254Z,101668.57
2018-09-22T10:48:48.010Z,101644.87
2018-09-22T10:53:38.842Z,101656.45
2018-09-22T10:58:30.157Z,101652.13
2018-09-22T11:03:23.748Z,101672.36
2018-09-22T11:08:19.929Z,101664.83
2018-09-22T11:13:13.665Z,101658.22
2018-09-22T11:18:17.701Z,101661.97
2018-09-22T11:23:12.706Z,101670.43
2018-09-22T11:28:05.356Z,101652.27
2018-09-22T11:33:01.383Z,101651.75
2018-09-22T11:37:55.067Z,101645.34
2018-09-22T11:42:51.172Z,101630.40
2018-09-22T11:47:46.599Z,101626.77
2018-09-22T11:52:39.283Z,101627.99
2018-09-22T11:57:35.703Z,101619.27
2018-09-22T12:02:26.550Z,101607.67
2018-09-22T12:07:18.179Z,101612.81
2018-09-22T12:12:09.952Z,101620.64
2018-09-22T12:17:01.496Z,101619.07
2018-09-22T12:21:58.269Z,101625.37
2018-09-22T12:26:52.481Z,101631.27
2018-09-22T12:31:45.930Z,101642.12
2018-09-22T12:36:41.746Z,101630.93
2018-09-22T12:41:37.345Z,101646.03
2018-09-22T12:46:32.496Z,101654.31
2018-09-22T12:51:27.634Z,101646.13
2018-09-22T12:56:23.324Z,101636.47
2018-09-22T13:01:16.929Z,101639.34
2018-09-22T13:06:12.750Z,101644.98
2018-09-22T13:11:08.215Z,101632.34
2018-09-22T13:16:03.231Z,101622.64
2018-09-22T13:20:57.791Z,101613.16
2018-09-22T13:26:02.360Z,101606.52
2018-09-22T13:30:56.308Z,101617.20
2018-09-22T13:35:51.234Z,101624.60
2018-09-22T13:40:44.653Z,101637.59
2018-09-22T13:45:47.362Z,101657.98
2018-09-22T13:56:29.972Z,101671.20
2018-09-22T14:01:22.457Z,101657.94
2018-09-22T14:06:16.987Z,101631.23
2018-09-22T14:11:28.460Z,101611.01
2018-09-22T14:16:22.871Z,101608.77
2018-09-22T14:21:30.558Z,101616.66
2018-09-22T14:26:29.645Z,101608.74
2018-09-22T14:31:22.756Z,101620.92
2018-09-22T14:36:20.600Z,101636.20
2018-09-22T14:41:15.209Z,101647.87
2018-09-22T14:46:22.581Z,101643.46
2018-09-22T14:51:15.289Z,101642.31
2018-09-22T14:56:25.132Z,101643.61
2018-09-22T15:01:24.775Z,101648.39
2018-09-22T15:06:28.868Z,101645.36
2018-09-22T15:11:27.221Z,101637.26
2018-09-22T15:16:42.120Z,101642.11
2018-09-22T15:21:58.781Z,101638.54
2018-09-22T15:27:11.044Z,101642.67
2018-09-22T15:32:06.410Z,101649.38
2018-09-22T15:37:09.354Z,101654.27
2018-09-22T15:42:15.964Z,101650.34
2018-09-22T15:47:30.727Z,101646.01
2018-09-22T15:52:28.199Z,101655.56
2018-09-22T15:57:23.849Z,101664.06
2018-09-22T16:02:26.584Z,101667.73
2018-09-22T16:07:50.376Z,101655.59
2018-09-22T16:13:06.235Z,101653.30
2018-09-22T16:18:18.010Z,101650.30
2018-09-22T16:23:33.486Z,101633.19
2018-09-22T16:28:54.699Z,101633.95
2018-09-22T16:39:10.716Z,101641.33
2018-09-22T16:44:19.670Z,101636.13
2018-09-22T16:49:22.093Z,101645.53
2018-09-22T16:54:32.238Z,101628.58
2018-09-22T16:59:34.905Z,101635.42
2018-09-22T17:05:03.322Z,101632.95
2018-09-22T17:09:56.599Z,101627.73
2018-09-22T17:15:15.474Z,101626.73
2018-09-22T17:20:38.372Z,101613.16
2018-09-22T17:25:32.338Z,101611.47
2018-09-22T17:30:40.304Z,101601.64
2018-09-22T17:35:50.964Z,101612.56
2018-09-22T17:41:08.828Z,101634.09
2018-09-22T17:46:15.357Z,101639.19
2018-09-22T17:51:21.702Z,101638.34
2018-09-22T17:56:30.391Z,101631.08
2018-09-22T18:01:34.708Z,101639.99
2018-09-22T18:06:42.144Z,101634.16
2018-09-22T18:11:59.126Z,101637.48
2018-09-22T18:17:05.323Z,101638.97
2018-09-22T18:22:13.445Z,101639.02
2018-09-22T18:27:22.870Z,101645.93
2018-09-22T18:32:29.528Z,101640.70
2018-09-22T18:37:38.086Z,101639.52
2018-09-22T18:42:48.453Z,101645.97
2018-09-22T18:47:57.523Z,101643.93
2018-09-22T18:53:06.425Z,101650.44
2018-09-22T18:58:22.120Z,101643.48
2018-09-22T19:03:20.947Z,101650.55
2018-09-22T19:08:32.359Z,101638.53
2018-09-22T19:13:35.827Z,101643.72
2018-09-22T19:18:47.275Z,101618.56
2018-09-22T19:23:52.331Z,101625.20
2018-09-22T19:28:57.754Z,101618.66
2018-09-22T19:34:06.139Z,101631.30
2018-09-22T19:39:16.755Z,101633.67
2018-09-22T19:44:28.483Z,101632.05
2018-09-22T19:49:35.323Z,101621.51
2018-09-22T19:54:39.659Z,101636.84
2018-09-22T19:59:47.496Z,101623.94
2018-09-22T20:04:55.577Z,101610.88
2018-09-22T20:10:02.259Z,101626.99
2018-09-22T20:15:16.465Z,101624.48
2018-09-22T20:20:24.680Z,101614.51
2018-09-22T20:25:33.464Z,101621.16
2018-09-22T20:30:41.397Z,101617.24
2018-09-22T20:35:50.708Z,101620.28
2018-09-22T20:40:59.884Z,101602.08
2018-09-22T20:46:08.123Z,101608.55
2018-09-22T20:51:26.094Z,101588.07
2018-09-22T20:56:36.181Z,101580.86
2018-09-22T21:01:45.930Z,101576.81
2018-09-22T21:07:01.179Z,101578.09
2018-09-22T21:12:11.616Z,101571.85
2018-09-22T21:17:28.236Z,101571.11
2018-09-22T21:22:43.988Z,101570.84
2018-09-22T21:27:56.080Z,101569.25
2018-09-22T21:33:10.136Z,101560.18
2018-09-22T21:38:23.909Z,101550.36
2018-09-22T21:43:36.991Z,101551.69
2018-09-22T21:48:50.572Z,101550.27
2018-09-22T21:54:07.299Z,101552.55
2018-09-22T21:59:18.163Z,101535.92
2018-09-22T22:04:29.677Z,101531.17
2018-09-22T22:09:42.218Z,101520.81
2018-09-22T22:14:50.695Z,101514.07
2018-09-22T22:20:08.796Z,101513.77
2018-09-22T22:25:19.851Z,101513.88
2018-09-22T22:30:31.359Z,101511.93
2018-09-22T22:35:54.137Z,101508.13
2018-09-22T22:41:05.147Z,101500.11
2018-09-22T22:46:16.613Z,101491.77
2018-09-22T22:51:36.392Z,101478.56
2018-09-22T22:56:50.200Z,101490.28
2018-09-22T23:02:06.643Z,101487.54
2018-09-22T23:07:18.728Z,101484.42
2018-09-22T23:12:33.441Z,101464.12
2018-09-22T23:17:44.521Z,101435.02
2018-09-22T23:22:56.326Z,101445.12
2018-09-22T23:28:08.983Z,101445.56
2018-09-22T23:33:23.948Z,101443.12
2018-09-22T23:38:38.352Z,101439.19
2018-09-22T23:43:46.388Z,101424.32
2018-09-22T23:48:59.059Z,101413.58
2018-09-22T23:54:07.540Z,101409.03
2018-09-22T23:59:15.207Z,101397.27
